createdAt,value
2018-07-15T00:02:04.665Z,24.99
2018-07-15T00:04:33.843Z,24.98
2018-07-15T00:07:02.962Z,24.96
2018-07-15T00:09:32.043Z,24.96
2018-07-15T00:12:01.216Z,24.95
2018-07-15T00:14:30.598Z,24.93
2018-07-15T00:16:59.732Z,24.91
2018-07-15T00:19:28.862Z,24.93
2018-07-15T00:21:57.952Z,24.92
2018-07-15T00:24:27.124Z,24.92
2018-07-15T00:26:56.260Z,24.95
2018-07-15T00:29:26.344Z,24.93
2018-07-15T00:31:55.472Z,24.91
2018-07-15T00:34:24.628Z,24.93
2018-07-15T00:36:53.733Z,24.92
2018-07-15T00:39:22.834Z,24.93
2018-07-15T00:41:51.932Z,24.92
2018-07-15T00:44:21.039Z,24.92
2018-07-15T00:46:50.218Z,24.91
2018-07-15T00:49:19.323Z,24.92
2018-07-15T00:51:48.406Z,24.90
2018-07-15T00:54:17.604Z,24.89
2018-07-15T00:57:09.096Z,24.90
2018-07-15T00:59:38.191Z,24.91
2018-07-15T01:02:07.447Z,24.94
2018-07-15T01:04:36.538Z,24.92
2018-07-15T01:07:05.708Z,24.92
2018-07-15T01:09:34.800Z,24.95
2018-07-15T01:12:03.920Z,24.95
2018-07-15T01:14:33.016Z,24.94
2018-07-15T01:17:02.196Z,24.97
2018-07-15T01:19:31.280Z,24.89
2018-07-15T01:22:00.389Z,24.90
2018-07-15T01:24:29.486Z,24.82
2018-07-15T01:26:58.600Z,24.88
2018-07-15T01:29:27.778Z,24.88
2018-07-15T01:31:56.864Z,24.85
2018-07-15T01:34:25.973Z,24.86
2018-07-15T01:36:55.059Z,24.87
2018-07-15T01:39:24.176Z,24.84
2018-07-15T01:41:53.251Z,24.81
2018-07-15T01:44:22.483Z,24.75
2018-07-15T01:46:51.640Z,24.78
2018-07-15T01:49:20.743Z,24.74
2018-07-15T01:51:49.834Z,24.76
2018-07-15T01:54:18.945Z,24.78
2018-07-15T01:56:48.054Z,24.80
2018-07-15T01:59:17.152Z,24.81
2018-07-15T02:01:46.237Z,24.79
2018-07-15T02:04:15.332Z,24.81
2018-07-15T02:06:44.429Z,24.84
2018-07-15T02:09:13.545Z,24.83
2018-07-15T02:11:42.640Z,24.83
2018-07-15T02:14:11.710Z,24.83
2018-07-15T02:16:41.453Z,24.82
2018-07-15T02:19:10.628Z,24.86
2018-07-15T02:21:39.754Z,24.85
2018-07-15T02:24:08.992Z,24.86
2018-07-15T02:26:38.077Z,24.84
2018-07-15T02:29:07.360Z,24.83
2018-07-15T02:31:36.507Z,24.79
2018-07-15T02:34:07.251Z,24.77
2018-07-15T02:36:36.399Z,24.74
2018-07-15T02:39:07.780Z,24.69
2018-07-15T02:41:37.033Z,24.72
2018-07-15T02:44:06.645Z,24.70
2018-07-15T02:46:36.041Z,24.68
2018-07-15T02:49:05.404Z,24.68
2018-07-15T02:51:34.661Z,24.72
2018-07-15T02:54:03.757Z,24.75
2018-07-15T02:56:32.874Z,24.78
2018-07-15T02:59:02.091Z,24.67
2018-07-15T03:01:31.242Z,24.67
2018-07-15T03:04:00.349Z,24.64
2018-07-15T03:06:29.489Z,24.65
2018-07-15T03:08:58.652Z,24.62
2018-07-15T03:11:27.770Z,24.68
2018-07-15T03:13:56.867Z,24.68
2018-07-15T03:16:25.987Z,24.69
2018-07-15T03:18:55.143Z,24.69
2018-07-15T03:21:24.218Z,24.72
2018-07-15T03:23:53.307Z,24.69
2018-07-15T03:26:41.157Z,24.66
2018-07-15T03:29:10.282Z,24.66
2018-07-15T03:31:39.389Z,24.63
2018-07-15T03:34:08.542Z,24.65
2018-07-15T03:36:37.886Z,24.65
2018-07-15T03:39:08.186Z,24.62
2018-07-15T03:41:37.315Z,24.66
2018-07-15T03:44:06.903Z,24.64
2018-07-15T03:46:36.155Z,24.65
2018-07-15T03:49:05.256Z,24.65
2018-07-15T03:51:42.710Z,24.64
2018-07-15T03:54:11.773Z,24.62
2018-07-15T03:56:40.888Z,24.63
2018-07-15T03:59:10.072Z,24.64
2018-07-15T04:01:39.175Z,24.60
2018-07-15T04:04:08.296Z,24.60
2018-07-15T04:06:37.389Z,24.61
2018-07-15T04:09:06.777Z,24.59
2018-07-15T04:11:36.215Z,24.62
2018-07-15T04:14:05.427Z,24.64
2018-07-15T04:16:34.568Z,24.67
2018-07-15T04:19:03.753Z,24.66
2018-07-15T04:21:32.891Z,24.64
2018-07-15T04:24:01.981Z,24.66
2018-07-15T04:26:31.147Z,24.62
2018-07-15T04:29:00.265Z,24.58
2018-07-15T04:31:29.346Z,24.59
2018-07-15T04:33:58.460Z,24.61
2018-07-15T04:36:27.631Z,24.60
2018-07-15T04:38:56.766Z,24.65
2018-07-15T04:41:25.849Z,24.68
2018-07-15T04:43:55.112Z,24.70
2018-07-15T04:46:24.347Z,24.66
2018-07-15T04:48:53.540Z,24.65
2018-07-15T04:51:22.643Z,24.68
2018-07-15T04:53:51.709Z,24.68
2018-07-15T04:56:20.809Z,24.65
2018-07-15T04:58:49.906Z,24.65
2018-07-15T05:01:18.995Z,24.65
2018-07-15T05:03:48.122Z,24.65
2018-07-15T05:06:18.063Z,24.64
2018-07-15T05:08:47.163Z,24.64
2018-07-15T05:11:16.263Z,24.65
2018-07-15T05:13:45.546Z,24.63
2018-07-15T05:16:14.725Z,24.67
2018-07-15T05:18:43.955Z,24.68
2018-07-15T05:21:13.039Z,24.66
2018-07-15T05:23:42.195Z,24.65
2018-07-15T05:26:11.289Z,24.68
2018-07-15T05:28:40.407Z,24.64
2018-07-15T05:31:09.491Z,24.64
2018-07-15T05:33:38.584Z,24.66
2018-07-15T05:36:08.695Z,24.68
2018-07-15T05:38:37.789Z,24.68
2018-07-15T05:41:06.958Z,24.72
2018-07-15T05:43:36.051Z,24.70
2018-07-15T05:46:10.591Z,24.73
2018-07-15T05:48:39.677Z,24.73
2018-07-15T05:51:08.891Z,24.70
2018-07-15T05:53:37.971Z,24.72
2018-07-15T05:56:07.155Z,24.74
2018-07-15T05:58:36.319Z,24.71
2018-07-15T06:01:05.397Z,24.67
2018-07-15T06:03:34.622Z,24.70
2018-07-15T06:06:03.856Z,24.73
2018-07-15T06:08:32.943Z,24.73
2018-07-15T06:11:02.409Z,24.70
2018-07-15T06:13:31.497Z,24.69
2018-07-15T06:16:04.289Z,24.69
2018-07-15T06:18:33.461Z,24.70
2018-07-15T06:21:02.560Z,24.70
2018-07-15T06:23:31.635Z,24.68
2018-07-15T06:26:00.746Z,24.71
2018-07-15T06:28:29.840Z,24.74
2018-07-15T06:30:58.933Z,24.73
2018-07-15T06:33:28.265Z,24.80
2018-07-15T06:35:57.447Z,24.85
2018-07-15T06:38:26.539Z,24.88
2018-07-15T06:40:55.640Z,24.92
2018-07-15T06:43:24.715Z,24.95
2018-07-15T06:45:53.841Z,25.03
2018-07-15T06:48:22.943Z,25.07
2018-07-15T06:50:52.065Z,25.11
2018-07-15T06:53:21.239Z,25.14
2018-07-15T06:55:55.823Z,25.16
2018-07-15T06:58:25.055Z,25.19
2018-07-15T07:00:54.251Z,25.24
2018-07-15T07:03:23.435Z,25.28
2018-07-15T07:05:52.515Z,25.32
2018-07-15T07:08:21.935Z,25.35
2018-07-15T07:10:51.136Z,25.39
2018-07-15T07:13:21.254Z,25.43
2018-07-15T07:15:50.468Z,25.48
2018-07-15T07:18:19.650Z,25.52
2018-07-15T07:20:48.960Z,25.54
2018-07-15T07:23:18.064Z,25.57
2018-07-15T07:25:47.258Z,25.59
2018-07-15T07:28:16.450Z,25.64
2018-07-15T07:30:45.643Z,25.68
2018-07-15T07:33:14.739Z,25.72
2018-07-15T07:35:47.386Z,25.76
2018-07-15T07:38:16.533Z,25.82
2018-07-15T07:40:45.626Z,25.85
2018-07-15T07:43:18.387Z,25.91
2018-07-15T07:45:47.476Z,25.96
2018-07-15T07:48:16.579Z,26.03
2018-07-15T07:50:45.696Z,26.09
2018-07-15T07:53:18.696Z,26.15
2018-07-15T07:55:48.087Z,26.23
2018-07-15T07:58:17.248Z,26.30
2018-07-15T08:00:58.408Z,26.38
2018-07-15T08:03:27.524Z,26.50
2018-07-15T08:06:06.426Z,26.59
2018-07-15T08:08:35.715Z,26.69
2018-07-15T08:11:04.893Z,26.79
2018-07-15T08:13:34.123Z,26.88
2018-07-15T08:16:03.255Z,26.96
2018-07-15T08:18:32.465Z,27.05
2018-07-15T08:21:01.770Z,27.12
2018-07-15T08:23:30.867Z,27.17
2018-07-15T08:26:00.065Z,27.23
2018-07-15T08:28:29.373Z,27.27
2018-07-15T08:31:09.101Z,27.32
2018-07-15T08:33:38.285Z,27.33
2018-07-15T08:36:07.564Z,27.35
2018-07-15T08:38:36.664Z,27.36
2018-07-15T08:41:05.932Z,27.33
2018-07-15T08:43:35.076Z,27.27
2018-07-15T08:46:04.351Z,27.21
2018-07-15T08:48:36.652Z,27.15
2018-07-15T08:51:05.850Z,27.10
2018-07-15T08:53:35.951Z,27.06
2018-07-15T08:56:05.072Z,27.05
2018-07-15T08:58:34.172Z,27.02
2018-07-15T09:01:03.288Z,27.00
2018-07-15T09:03:32.659Z,26.94
2018-07-15T09:06:01.764Z,26.91
2018-07-15T09:08:30.952Z,26.86
2018-07-15T09:11:00.045Z,26.89
2018-07-15T09:13:29.155Z,26.88
2018-07-15T09:15:58.240Z,26.84
2018-07-15T09:18:27.373Z,26.82
2018-07-15T09:20:56.596Z,26.75
2018-07-15T09:23:25.732Z,26.75
2018-07-15T09:25:54.825Z,26.78
2018-07-15T09:28:23.928Z,26.79
2018-07-15T09:30:53.141Z,26.77
2018-07-15T09:33:22.312Z,26.71
2018-07-15T09:35:51.408Z,26.70
2018-07-15T09:38:20.503Z,26.70
2018-07-15T09:40:49.696Z,26.67
2018-07-15T09:43:18.808Z,26.65
2018-07-15T09:45:47.999Z,26.64
2018-07-15T09:48:17.099Z,26.61
2018-07-15T09:50:47.945Z,26.60
2018-07-15T09:53:17.137Z,26.58
2018-07-15T09:55:46.252Z,26.56
2018-07-15T09:58:15.329Z,26.54
2018-07-15T10:00:49.782Z,26.50
2018-07-15T10:03:18.937Z,26.47
2018-07-15T10:05:48.209Z,26.45
2018-07-15T10:08:17.969Z,26.43
2018-07-15T10:10:47.180Z,26.41
2018-07-15T10:13:16.276Z,26.39
2018-07-15T10:15:45.519Z,26.38
2018-07-15T10:18:14.637Z,26.37
2018-07-15T10:20:43.749Z,26.34
2018-07-15T10:23:12.853Z,26.32
2018-07-15T10:25:42.108Z,26.32
2018-07-15T10:28:11.732Z,26.30
2018-07-15T10:30:42.812Z,26.28
2018-07-15T10:33:12.024Z,26.27
2018-07-15T10:35:41.281Z,26.25
2018-07-15T10:38:10.582Z,26.24
2018-07-15T10:40:39.664Z,26.23
2018-07-15T10:43:09.800Z,26.22
2018-07-15T10:45:38.940Z,26.22
2018-07-15T10:48:08.056Z,26.19
2018-07-15T10:50:37.145Z,26.19
2018-07-15T10:53:06.245Z,26.17
2018-07-15T10:55:35.383Z,26.16
2018-07-15T10:58:04.573Z,26.16
2018-07-15T11:00:33.792Z,26.14
2018-07-15T11:03:02.886Z,26.13
2018-07-15T11:05:32.080Z,26.12
2018-07-15T11:08:01.174Z,26.10
2018-07-15T11:10:30.280Z,26.10
2018-07-15T11:12:59.479Z,26.10
2018-07-15T11:15:28.663Z,26.10
2018-07-15T11:17:57.869Z,26.10
2018-07-15T11:20:26.949Z,26.08
2018-07-15T11:22:56.375Z,26.07
2018-07-15T11:25:25.507Z,26.07
2018-07-15T11:27:54.709Z,26.07
2018-07-15T11:30:23.863Z,26.05
2018-07-15T11:32:53.079Z,26.05
2018-07-15T11:35:22.235Z,26.02
2018-07-15T11:37:51.358Z,26.00
2018-07-15T11:40:20.471Z,26.01
2018-07-15T11:42:49.550Z,26.01
2018-07-15T11:45:18.715Z,26.00
2018-07-15T11:47:47.817Z,26.00
2018-07-15T11:50:17.096Z,26.00
2018-07-15T11:52:46.213Z,26.00
2018-07-15T11:55:15.307Z,25.99
2018-07-15T11:57:44.672Z,25.99
2018-07-15T12:00:13.778Z,25.99
2018-07-15T12:02:42.901Z,25.97
2018-07-15T12:05:12.009Z,25.98
2018-07-15T12:07:41.192Z,25.98
2018-07-15T12:10:10.604Z,25.97
2018-07-15T12:12:39.710Z,25.97
2018-07-15T12:15:08.808Z,25.97
2018-07-15T12:17:37.984Z,25.97
2018-07-15T12:20:07.103Z,25.97
2018-07-15T12:22:36.193Z,25.96
2018-07-15T12:25:05.506Z,25.96
2018-07-15T12:27:34.607Z,25.96
2018-07-15T12:30:03.708Z,25.95
2018-07-15T12:32:32.804Z,25.95
2018-07-15T12:35:01.956Z,25.95
2018-07-15T12:37:31.055Z,25.94
2018-07-15T12:40:00.200Z,25.95
2018-07-15T12:42:29.302Z,25.95
2018-07-15T12:44:58.472Z,25.95
2018-07-15T12:47:27.640Z,25.96
2018-07-15T12:49:57.670Z,25.95
2018-07-15T12:52:26.788Z,25.95
2018-07-15T12:54:55.960Z,25.95
2018-07-15T12:57:25.063Z,25.94
2018-07-15T12:59:54.156Z,25.94
2018-07-15T13:02:42.105Z,25.92
2018-07-15T13:05:11.626Z,25.94
2018-07-15T13:07:40.797Z,25.93
2018-07-15T13:10:09.887Z,25.92
2018-07-15T13:12:38.980Z,25.92
2018-07-15T13:15:08.076Z,25.91
2018-07-15T13:17:37.264Z,25.92
2018-07-15T13:20:06.371Z,25.93
2018-07-15T13:22:35.468Z,25.93
2018-07-15T13:25:04.685Z,25.93
2018-07-15T13:27:33.765Z,25.92
2018-07-15T13:30:03.020Z,25.92
2018-07-15T13:32:32.164Z,25.91
2018-07-15T13:35:01.266Z,25.91
2018-07-15T13:37:30.482Z,25.91
2018-07-15T13:40:00.327Z,25.90
2018-07-15T13:42:32.567Z,25.91
2018-07-15T13:45:01.664Z,25.91
2018-07-15T13:47:30.822Z,25.91
2018-07-15T13:49:59.932Z,25.91
2018-07-15T13:52:29.019Z,25.92
2018-07-15T13:54:58.145Z,25.93
2018-07-15T13:57:27.312Z,25.91
2018-07-15T13:59:56.416Z,25.92
2018-07-15T14:02:25.508Z,25.91
2018-07-15T14:04:54.599Z,25.91
2018-07-15T14:07:23.726Z,25.91
2018-07-15T14:09:52.892Z,25.92
2018-07-15T14:12:21.991Z,25.91
2018-07-15T14:14:51.088Z,25.91
2018-07-15T14:17:20.184Z,25.90
2018-07-15T14:19:49.327Z,25.91
2018-07-15T14:22:18.476Z,25.93
2018-07-15T14:24:47.576Z,25.94
2018-07-15T14:27:17.665Z,25.94
2018-07-15T14:29:46.756Z,25.93
2018-07-15T14:32:15.896Z,25.92
2018-07-15T14:34:44.985Z,25.92
2018-07-15T14:37:14.090Z,25.94
2018-07-15T14:39:43.267Z,25.94
2018-07-15T14:42:12.468Z,25.93
2018-07-15T14:44:41.580Z,25.95
2018-07-15T14:47:16.297Z,25.95
2018-07-15T14:49:45.436Z,25.95
2018-07-15T14:52:14.536Z,25.95
2018-07-15T14:54:43.683Z,25.95
2018-07-15T14:57:12.778Z,25.96
2018-07-15T14:59:42.010Z,25.96
2018-07-15T15:02:11.202Z,25.97
2018-07-15T15:04:40.315Z,25.96
2018-07-15T15:07:09.505Z,25.96
2018-07-15T15:09:38.675Z,25.97
2018-07-15T15:12:07.782Z,25.96
2018-07-15T15:14:36.980Z,25.97
2018-07-15T15:17:06.329Z,25.97
2018-07-15T15:19:35.467Z,25.97
2018-07-15T15:22:04.595Z,25.97
2018-07-15T15:24:33.765Z,26.01
2018-07-15T15:27:19.636Z,26.01
2018-07-15T15:29:48.728Z,26.00
2018-07-15T15:32:17.815Z,25.99
2018-07-15T15:34:46.904Z,25.99
2018-07-15T15:37:16.038Z,25.99
2018-07-15T15:39:45.254Z,25.99
2018-07-15T15:42:15.388Z,25.99
2018-07-15T15:44:44.722Z,25.98
2018-07-15T15:47:13.951Z,26.00
2018-07-15T15:49:48.914Z,26.01
2018-07-15T15:52:18.075Z,26.01
2018-07-15T15:54:47.167Z,26.01
2018-07-15T15:57:16.255Z,26.02
2018-07-15T15:59:45.381Z,26.03
2018-07-15T16:02:14.580Z,26.05
2018-07-15T16:04:43.875Z,26.06
2018-07-15T16:07:13.131Z,26.06
2018-07-15T16:09:42.307Z,26.07
2018-07-15T16:12:11.403Z,26.08
2018-07-15T16:14:40.671Z,26.08
2018-07-15T16:17:09.720Z,26.09
2018-07-15T16:19:38.855Z,26.11
2018-07-15T16:22:07.957Z,26.12
2018-07-15T16:24:37.035Z,26.10
2018-07-15T16:27:06.163Z,26.11
2018-07-15T16:29:35.345Z,26.11
2018-07-15T16:32:04.429Z,26.11
2018-07-15T16:34:33.536Z,26.12
2018-07-15T16:37:02.623Z,26.11
2018-07-15T16:39:31.737Z,26.13
2018-07-15T16:42:00.819Z,26.12
2018-07-15T16:44:30.041Z,26.13
2018-07-15T16:46:59.221Z,26.12
2018-07-15T16:49:33.723Z,26.15
2018-07-15T16:52:02.783Z,26.14
2018-07-15T16:54:31.879Z,26.16
2018-07-15T16:57:01.247Z,26.19
2018-07-15T16:59:30.438Z,26.17
2018-07-15T17:01:59.625Z,26.18
2018-07-15T17:04:28.830Z,26.17
2018-07-15T17:06:57.931Z,26.16
2018-07-15T17:09:27.185Z,26.15
2018-07-15T17:11:56.281Z,26.17
2018-07-15T17:14:25.353Z,26.17
2018-07-15T17:16:54.489Z,26.16
2018-07-15T17:19:23.607Z,26.16
2018-07-15T17:21:52.855Z,26.15
2018-07-15T17:24:21.969Z,26.16
2018-07-15T17:26:51.291Z,26.16
2018-07-15T17:29:20.389Z,26.17
2018-07-15T17:31:49.493Z,26.17
2018-07-15T17:34:18.596Z,26.17
2018-07-15T17:36:47.677Z,26.16
2018-07-15T17:39:16.768Z,26.15
2018-07-15T17:41:45.877Z,26.16
2018-07-15T17:44:14.959Z,26.16
2018-07-15T17:46:44.043Z,26.16
2018-07-15T17:49:13.295Z,26.16
2018-07-15T17:51:42.470Z,26.17
2018-07-15T17:54:11.815Z,26.15
2018-07-15T17:56:42.618Z,26.16
2018-07-15T17:59:12.272Z,26.16
2018-07-15T18:01:41.628Z,26.15
2018-07-15T18:04:10.799Z,26.15
2018-07-15T18:06:39.905Z,26.14
2018-07-15T18:09:08.973Z,26.14
2018-07-15T18:11:38.083Z,26.14
2018-07-15T18:14:07.869Z,26.16
2018-07-15T18:16:36.979Z,26.15
2018-07-15T18:19:06.101Z,26.15
2018-07-15T18:21:35.177Z,26.15
2018-07-15T18:24:04.302Z,26.15
2018-07-15T18:26:33.583Z,26.16
2018-07-15T18:29:02.902Z,26.15
2018-07-15T18:31:32.101Z,26.15
2018-07-15T18:34:01.585Z,26.14
2018-07-15T18:36:30.782Z,26.14
2018-07-15T18:38:59.972Z,26.13
2018-07-15T18:41:29.233Z,26.14
2018-07-15T18:43:58.312Z,26.14
2018-07-15T18:46:27.475Z,26.15
2018-07-15T18:48:56.579Z,26.15
2018-07-15T18:51:26.087Z,26.15
2018-07-15T18:53:55.187Z,26.13
2018-07-15T18:56:24.377Z,26.14
2018-07-15T18:58:53.505Z,26.13
2018-07-15T19:01:22.773Z,26.13
2018-07-15T19:03:51.871Z,26.13
2018-07-15T19:06:20.977Z,26.13
2018-07-15T19:08:50.061Z,26.13
2018-07-15T19:11:19.140Z,26.13
2018-07-15T19:13:48.217Z,26.13
2018-07-15T19:16:17.338Z,26.12
2018-07-15T19:18:46.437Z,26.13
2018-07-15T19:21:15.786Z,26.13
2018-07-15T19:23:44.920Z,26.13
2018-07-15T19:26:14.537Z,26.13
2018-07-15T19:28:43.665Z,26.12
2018-07-15T19:31:12.745Z,26.12
2018-07-15T19:33:42.037Z,26.11
2018-07-15T19:36:11.364Z,26.11
2018-07-15T19:38:40.539Z,26.11
2018-07-15T19:41:09.653Z,26.11
2018-07-15T19:43:38.754Z,26.11
2018-07-15T19:46:07.910Z,26.11
2018-07-15T19:48:37.031Z,26.12
2018-07-15T19:51:06.115Z,26.10
2018-07-15T19:53:35.195Z,26.11
2018-07-15T19:56:04.409Z,26.11
2018-07-15T19:58:33.635Z,26.11
2018-07-15T20:01:02.861Z,26.10
2018-07-15T20:03:32.100Z,26.10
2018-07-15T20:06:01.211Z,26.09
2018-07-15T20:08:30.298Z,26.09
2018-07-15T20:10:59.420Z,26.08
2018-07-15T20:13:28.580Z,26.09
2018-07-15T20:15:57.665Z,26.09
2018-07-15T20:18:26.772Z,26.09
2018-07-15T20:20:55.929Z,26.09
2018-07-15T20:23:25.200Z,26.08
2018-07-15T20:25:54.326Z,26.07
2018-07-15T20:28:23.542Z,26.07
2018-07-15T20:30:52.666Z,26.07
2018-07-15T20:33:21.753Z,26.06
2018-07-15T20:35:50.880Z,26.06
2018-07-15T20:38:19.952Z,26.07
2018-07-15T20:40:49.041Z,26.06
2018-07-15T20:43:18.108Z,26.06
2018-07-15T20:45:47.192Z,26.06
2018-07-15T20:48:16.340Z,26.06
2018-07-15T20:50:45.438Z,26.04
2018-07-15T20:53:14.539Z,26.04
2018-07-15T20:55:43.624Z,26.06
2018-07-15T20:58:12.720Z,26.05
2018-07-15T21:00:41.928Z,26.04
2018-07-15T21:03:11.007Z,26.05
2018-07-15T21:05:40.119Z,26.04
2018-07-15T21:08:09.193Z,26.04
2018-07-15T21:10:38.303Z,26.03
2018-07-15T21:13:07.490Z,26.02
2018-07-15T21:15:36.580Z,26.04
2018-07-15T21:18:05.708Z,26.03
2018-07-15T21:20:34.790Z,26.04
2018-07-15T21:23:03.901Z,26.03
2018-07-15T21:25:33.181Z,26.02
2018-07-15T21:28:02.443Z,26.01
2018-07-15T21:30:31.600Z,26.03
2018-07-15T21:33:00.668Z,26.04
2018-07-15T21:35:29.750Z,26.06
2018-07-15T21:37:58.870Z,26.04
2018-07-15T21:40:28.184Z,26.04
2018-07-15T21:42:57.289Z,26.04
2018-07-15T21:45:26.380Z,26.03
2018-07-15T21:48:01.000Z,26.03
2018-07-15T21:50:30.079Z,26.01
2018-07-15T21:52:59.159Z,26.01
2018-07-15T21:55:28.244Z,26.01
2018-07-15T21:57:57.356Z,26.01
2018-07-15T22:00:26.477Z,26.01
2018-07-15T22:02:55.618Z,26.01
2018-07-15T22:05:24.866Z,26.01
2018-07-15T22:08:05.309Z,26.04
2018-07-15T22:10:40.815Z,26.04
2018-07-15T22:13:10.117Z,26.03
2018-07-15T22:15:39.482Z,26.03
2018-07-15T22:18:08.605Z,26.03
2018-07-15T22:20:38.219Z,26.02
2018-07-15T22:23:07.940Z,26.04
2018-07-15T22:25:37.076Z,26.02
2018-07-15T22:28:06.160Z,26.03
2018-07-15T22:30:35.232Z,26.05
2018-07-15T22:33:04.557Z,26.04
2018-07-15T22:35:33.684Z,26.03
2018-07-15T22:38:09.966Z,26.00
2018-07-15T22:40:39.132Z,26.02
2018-07-15T22:43:08.208Z,26.02
2018-07-15T22:45:37.304Z,26.00
2018-07-15T22:48:06.412Z,26.00
2018-07-15T22:50:35.462Z,26.01
2018-07-15T22:53:04.639Z,26.01
2018-07-15T22:55:34.829Z,26.00
2018-07-15T22:58:03.926Z,25.98
2018-07-15T23:00:33.020Z,26.00
2018-07-15T23:03:02.105Z,26.02
2018-07-15T23:05:43.782Z,25.98
2018-07-15T23:08:12.954Z,25.97
2018-07-15T23:10:42.034Z,25.96
2018-07-15T23:13:11.872Z,25.94
2018-07-15T23:15:41.356Z,25.94
2018-07-15T23:18:10.452Z,25.94
2018-07-15T23:20:40.392Z,25.92
2018-07-15T23:23:10.120Z,25.95
2018-07-15T23:25:39.223Z,25.96
2018-07-15T23:28:09.378Z,25.94
2018-07-15T23:30:39.215Z,25.95
2018-07-15T23:33:08.823Z,25.96
2018-07-15T23:35:37.924Z,25.95
2018-07-15T23:38:07.060Z,25.95
2018-07-15T23:40:36.186Z,25.95
2018-07-15T23:43:05.517Z,25.96
2018-07-15T23:45:35.440Z,25.93
2018-07-15T23:48:04.571Z,25.93
2018-07-15T23:50:33.668Z,25.92
2018-07-15T23:53:02.804Z,25.91
2018-07-15T23:55:31.868Z,25.91
2018-07-15T23:58:00.940Z,25.91
